createdAt,value
2018-12-14T00:00:59.059Z,-80
2018-12-14T00:01:59.027Z,-80
2018-12-14T00:02:59.219Z,-80
2018-12-14T00:03:59.136Z,-80
2018-12-14T00:04:59.183Z,-79
2018-12-14T00:05:59.012Z,-80
2018-12-14T00:06:59.044Z,-80
2018-12-14T00:07:59.051Z,-80
2018-12-14T00:08:59.010Z,-80
2018-12-14T00:09:59.009Z,-80
2018-12-14T00:11:00.835Z,-77
2018-12-14T00:11:59.188Z,-79
2018-12-14T00:12:59.165Z,-79
2018-12-14T00:13:59.226Z,-78
2018-12-14T00:14:59.069Z,-78
2018-12-14T00:15:59.186Z,-79
2018-12-14T00:16:59.210Z,-80
2018-12-14T00:17:59.272Z,-77
2018-12-14T00:18:59.188Z,-78
2018-12-14T00:19:59.040Z,-79
2018-12-14T00:20:58.966Z,-79
2018-12-14T00:21:59.054Z,-80
2018-12-14T00:22:59.229Z,-78
2018-12-14T00:23:58.975Z,-80
2018-12-14T00:24:59.198Z,-79
2018-12-14T00:25:59.080Z,-80
2018-12-14T00:26:58.958Z,-80
2018-12-14T00:27:59.045Z,-80
2018-12-14T00:28:59.037Z,-80
2018-12-14T00:29:59.146Z,-80
2018-12-14T00:30:59.154Z,-79
2018-12-14T00:31:59.022Z,-79
2018-12-14T00:32:59.026Z,-80
2018-12-14T00:33:59.206Z,-78
2018-12-14T00:34:58.941Z,-80
2018-12-14T00:35:59.118Z,-80
2018-12-14T00:36:59.060Z,-80
2018-12-14T00:37:59.163Z,-79
2018-12-14T00:38:59.054Z,-80
2018-12-14T00:39:59.181Z,-79
2018-12-14T00:40:59.298Z,-78
2018-12-14T00:41:59.340Z,-78
2018-12-14T00:42:59.195Z,-79
2018-12-14T00:43:58.958Z,-80
2018-12-14T00:44:59.228Z,-77
2018-12-14T00:45:59.037Z,-79
2018-12-14T00:46:59.257Z,-77
2018-12-14T00:47:59.000Z,-80
2018-12-14T00:48:59.033Z,-79
2018-12-14T00:49:59.157Z,-77
2018-12-14T00:50:59.023Z,-80
2018-12-14T00:51:59.160Z,-79
2018-12-14T00:52:58.988Z,-80
2018-12-14T00:53:59.041Z,-79
2018-12-14T00:54:59.139Z,-77
2018-12-14T00:55:59.265Z,-79
2018-12-14T00:56:58.930Z,-80
2018-12-14T00:57:59.053Z,-79
2018-12-14T00:58:59.114Z,-80
2018-12-14T00:59:59.174Z,-80
2018-12-14T01:00:59.145Z,-80
2018-12-14T01:01:59.239Z,-78
2018-12-14T01:02:59.553Z,-78
2018-12-14T01:03:59.033Z,-80
2018-12-14T01:04:59.004Z,-80
2018-12-14T01:05:59.206Z,-78
2018-12-14T01:06:59.120Z,-79
2018-12-14T01:07:59.353Z,-79
2018-12-14T01:08:59.049Z,-78
2018-12-14T01:09:59.069Z,-79
2018-12-14T01:10:58.891Z,-80
2018-12-14T01:11:59.277Z,-77
2018-12-14T01:12:58.957Z,-78
2018-12-14T01:13:58.952Z,-79
2018-12-14T01:14:59.149Z,-78
2018-12-14T01:15:58.996Z,-80
2018-12-14T01:16:58.914Z,-80
2018-12-14T01:17:59.113Z,-80
2018-12-14T01:18:58.834Z,-80
2018-12-14T01:19:59.743Z,-80
2018-12-14T01:20:58.913Z,-80
2018-12-14T01:21:58.892Z,-80
2018-12-14T01:22:58.898Z,-81
2018-12-14T01:23:59.029Z,-81
2018-12-14T01:24:59.084Z,-81
2018-12-14T01:25:58.987Z,-80
2018-12-14T01:26:58.993Z,-80
2018-12-14T01:27:59.214Z,-80
2018-12-14T01:28:59.051Z,-80
2018-12-14T01:29:59.097Z,-80
2018-12-14T01:30:59.002Z,-80
2018-12-14T01:31:59.081Z,-80
2018-12-14T01:32:58.986Z,-80
2018-12-14T01:33:58.951Z,-80
2018-12-14T01:34:58.908Z,-80
2018-12-14T01:35:59.188Z,-80
2018-12-14T01:36:58.921Z,-80
2018-12-14T01:37:58.999Z,-80
2018-12-14T01:38:58.923Z,-80
2018-12-14T01:39:58.972Z,-80
2018-12-14T01:40:59.043Z,-80
2018-12-14T01:42:05.425Z,-80
2018-12-14T01:42:58.910Z,-80
2018-12-14T01:43:59.022Z,-80
2018-12-14T01:44:58.995Z,-80
2018-12-14T01:45:58.910Z,-80
2018-12-14T01:46:58.916Z,-80
2018-12-14T01:47:58.935Z,-80
2018-12-14T01:48:58.924Z,-80
2018-12-14T01:49:58.892Z,-80
2018-12-14T01:50:58.952Z,-80
2018-12-14T01:51:58.895Z,-80
2018-12-14T01:52:59.052Z,-80
2018-12-14T01:53:58.980Z,-80
2018-12-14T01:54:59.057Z,-80
2018-12-14T01:55:58.942Z,-80
2018-12-14T01:56:58.846Z,-80
2018-12-14T01:57:58.938Z,-80
2018-12-14T01:58:58.960Z,-80
2018-12-14T01:59:58.915Z,-82
2018-12-14T02:00:58.930Z,-80
2018-12-14T02:01:59.089Z,-80
2018-12-14T02:02:58.926Z,-80
2018-12-14T02:03:58.900Z,-80
2018-12-14T02:04:59.056Z,-80
2018-12-14T02:05:59.608Z,-80
2018-12-14T02:06:59.035Z,-80
2018-12-14T02:07:58.948Z,-81
2018-12-14T02:08:58.918Z,-80
2018-12-14T02:09:58.971Z,-80
2018-12-14T02:10:58.860Z,-80
2018-12-14T02:11:58.917Z,-80
2018-12-14T02:12:59.673Z,-80
2018-12-14T02:13:58.964Z,-80
2018-12-14T02:14:58.937Z,-80
2018-12-14T02:15:59.024Z,-80
2018-12-14T02:16:59.145Z,-80
2018-12-14T02:17:59.132Z,-80
2018-12-14T02:18:58.879Z,-80
2018-12-14T02:19:58.861Z,-80
2018-12-14T02:20:58.965Z,-80
2018-12-14T02:21:58.953Z,-80
2018-12-14T02:22:59.188Z,-80
2018-12-14T02:23:59.121Z,-80
2018-12-14T02:24:59.149Z,-80
2018-12-14T02:25:59.052Z,-80
2018-12-14T02:26:58.901Z,-80
2018-12-14T02:27:58.983Z,-80
2018-12-14T02:28:59.071Z,-80
2018-12-14T02:29:59.051Z,-80
2018-12-14T02:30:59.158Z,-80
2018-12-14T02:31:59.004Z,-80
2018-12-14T02:32:58.949Z,-80
2018-12-14T02:33:59.230Z,-80
2018-12-14T02:34:58.928Z,-80
2018-12-14T02:35:58.946Z,-80
2018-12-14T02:36:59.003Z,-80
2018-12-14T02:37:58.829Z,-80
2018-12-14T02:38:58.955Z,-80
2018-12-14T02:39:58.892Z,-80
2018-12-14T02:40:58.889Z,-80
2018-12-14T02:41:58.903Z,-80
2018-12-14T02:42:59.049Z,-80
2018-12-14T02:43:58.860Z,-80
2018-12-14T02:44:58.938Z,-80
2018-12-14T02:45:58.947Z,-80
2018-12-14T02:46:59.054Z,-80
2018-12-14T02:47:59.008Z,-80
2018-12-14T02:48:58.879Z,-80
2018-12-14T02:49:58.995Z,-80
2018-12-14T02:50:58.972Z,-80
2018-12-14T02:51:58.994Z,-81
2018-12-14T02:52:58.849Z,-81
2018-12-14T02:53:58.908Z,-81
2018-12-14T02:54:58.994Z,-80
2018-12-14T02:55:59.030Z,-80
2018-12-14T02:56:59.005Z,-80
2018-12-14T02:57:58.827Z,-80
2018-12-14T02:58:58.878Z,-80
2018-12-14T02:59:58.822Z,-80
2018-12-14T03:00:58.969Z,-80
2018-12-14T03:01:58.817Z,-80
2018-12-14T03:02:59.371Z,-80
2018-12-14T03:03:59.019Z,-80
2018-12-14T03:04:58.775Z,-80
2018-12-14T03:05:59.634Z,-80
2018-12-14T03:06:58.938Z,-80
2018-12-14T03:07:58.739Z,-80
2018-12-14T03:08:58.883Z,-80
2018-12-14T03:09:58.893Z,-80
2018-12-14T03:10:58.899Z,-80
2018-12-14T03:11:58.748Z,-80
2018-12-14T03:12:58.860Z,-80
2018-12-14T03:13:58.817Z,-80
2018-12-14T03:14:58.753Z,-80
2018-12-14T03:15:58.803Z,-80
2018-12-14T03:16:58.805Z,-81
2018-12-14T03:17:58.740Z,-80
2018-12-14T03:18:58.763Z,-80
2018-12-14T03:19:58.789Z,-80
2018-12-14T03:20:58.739Z,-80
2018-12-14T03:21:58.767Z,-80
2018-12-14T03:22:58.812Z,-80
2018-12-14T03:23:58.802Z,-80
2018-12-14T03:24:58.856Z,-80
2018-12-14T03:25:58.727Z,-80
2018-12-14T03:26:58.784Z,-80
2018-12-14T03:27:58.884Z,-80
2018-12-14T03:28:58.732Z,-80
2018-12-14T03:29:58.808Z,-80
2018-12-14T03:30:58.794Z,-80
2018-12-14T03:31:59.212Z,-80
2018-12-14T03:32:58.945Z,-80
2018-12-14T03:33:58.938Z,-80
2018-12-14T03:34:58.806Z,-80
2018-12-14T03:35:58.666Z,-80
2018-12-14T03:36:58.806Z,-80
2018-12-14T03:37:58.939Z,-80
2018-12-14T03:38:58.831Z,-80
2018-12-14T03:39:58.990Z,-80
2018-12-14T03:40:58.972Z,-80
2018-12-14T03:41:58.942Z,-80
2018-12-14T03:42:58.798Z,-80
2018-12-14T03:43:58.694Z,-80
2018-12-14T03:44:58.851Z,-80
2018-12-14T03:45:58.746Z,-80
2018-12-14T03:46:58.881Z,-80
2018-12-14T03:47:58.744Z,-80
2018-12-14T03:48:58.760Z,-80
2018-12-14T03:49:58.818Z,-80
2018-12-14T03:50:58.694Z,-80
2018-12-14T03:51:58.727Z,-80
2018-12-14T03:52:58.722Z,-80
2018-12-14T03:53:58.663Z,-80
2018-12-14T03:54:58.857Z,-80
2018-12-14T03:55:58.797Z,-80
2018-12-14T03:56:58.889Z,-80
2018-12-14T03:57:58.846Z,-80
2018-12-14T03:58:58.808Z,-80
2018-12-14T03:59:58.770Z,-80
2018-12-14T04:00:59.532Z,-80
2018-12-14T04:01:58.792Z,-80
2018-12-14T04:02:58.677Z,-80
2018-12-14T04:03:58.686Z,-80
2018-12-14T04:04:59.192Z,-80
2018-12-14T04:05:58.732Z,-80
2018-12-14T04:06:59.102Z,-80
2018-12-14T04:07:58.697Z,-80
2018-12-14T04:08:58.953Z,-80
2018-12-14T04:09:58.724Z,-80
2018-12-14T04:10:58.649Z,-80
2018-12-14T04:11:58.895Z,-80
2018-12-14T04:12:58.865Z,-80
2018-12-14T04:13:58.736Z,-80
2018-12-14T04:14:58.907Z,-79
2018-12-14T04:15:58.601Z,-80
2018-12-14T04:16:58.829Z,-80
2018-12-14T04:17:58.712Z,-80
2018-12-14T04:18:58.641Z,-80
2018-12-14T04:19:58.730Z,-80
2018-12-14T04:20:58.745Z,-80
2018-12-14T04:21:58.722Z,-80
2018-12-14T04:22:58.762Z,-80
2018-12-14T04:23:58.768Z,-80
2018-12-14T04:24:59.182Z,-80
2018-12-14T04:25:58.851Z,-80
2018-12-14T04:26:58.698Z,-80
2018-12-14T04:27:58.712Z,-80
2018-12-14T04:28:58.843Z,-80
2018-12-14T04:29:58.864Z,-80
2018-12-14T04:30:58.689Z,-80
2018-12-14T04:31:59.413Z,-80
2018-12-14T04:32:58.743Z,-80
2018-12-14T04:33:58.817Z,-80
2018-12-14T04:34:58.803Z,-80
2018-12-14T04:35:58.822Z,-80
2018-12-14T04:36:58.679Z,-80
2018-12-14T04:37:58.803Z,-80
2018-12-14T04:38:58.663Z,-80
2018-12-14T04:39:58.632Z,-80
2018-12-14T04:40:58.747Z,-80
2018-12-14T04:41:58.670Z,-80
2018-12-14T04:42:59.045Z,-80
2018-12-14T04:43:58.806Z,-80
2018-12-14T04:44:58.758Z,-80
2018-12-14T04:45:58.993Z,-80
2018-12-14T04:46:58.616Z,-80
2018-12-14T04:47:58.976Z,-80
2018-12-14T04:48:58.694Z,-80
2018-12-14T04:49:58.760Z,-80
2018-12-14T04:50:58.916Z,-80
2018-12-14T04:51:58.595Z,-80
2018-12-14T04:52:58.530Z,-80
2018-12-14T04:53:58.693Z,-80
2018-12-14T04:54:58.804Z,-80
2018-12-14T04:55:58.663Z,-80
2018-12-14T04:56:58.811Z,-80
2018-12-14T04:57:58.674Z,-80
2018-12-14T04:58:58.584Z,-80
2018-12-14T04:59:58.631Z,-80
2018-12-14T05:00:58.756Z,-80
2018-12-14T05:01:58.786Z,-80
2018-12-14T05:02:58.610Z,-80
2018-12-14T05:03:58.631Z,-80
2018-12-14T05:04:58.678Z,-81
2018-12-14T05:05:59.351Z,-80
2018-12-14T05:06:58.807Z,-80
2018-12-14T05:07:58.559Z,-80
2018-12-14T05:08:58.562Z,-80
2018-12-14T05:09:58.596Z,-80
2018-12-14T05:10:58.739Z,-80
2018-12-14T05:11:58.778Z,-80
2018-12-14T05:12:58.698Z,-81
2018-12-14T05:13:58.907Z,-80
2018-12-14T05:14:58.787Z,-80
2018-12-14T05:15:58.634Z,-80
2018-12-14T05:16:58.999Z,-80
2018-12-14T05:17:58.622Z,-80
2018-12-14T05:18:58.785Z,-80
2018-12-14T05:19:58.668Z,-80
2018-12-14T05:20:58.806Z,-80
2018-12-14T05:21:58.679Z,-80
2018-12-14T05:22:58.529Z,-80
2018-12-14T05:23:58.553Z,-80
2018-12-14T05:24:58.858Z,-80
2018-12-14T05:25:58.639Z,-80
2018-12-14T05:26:58.582Z,-80
2018-12-14T05:27:58.723Z,-80
2018-12-14T05:28:58.583Z,-80
2018-12-14T05:29:58.646Z,-80
2018-12-14T05:30:58.716Z,-81
2018-12-14T05:31:58.635Z,-81
2018-12-14T05:32:58.843Z,-81
2018-12-14T05:33:58.738Z,-81
2018-12-14T05:34:58.683Z,-81
2018-12-14T05:35:58.587Z,-81
2018-12-14T05:36:58.753Z,-81
2018-12-14T05:38:06.462Z,-80
2018-12-14T05:38:58.660Z,-81
2018-12-14T05:39:58.617Z,-81
2018-12-14T05:40:59.532Z,-80
2018-12-14T05:41:58.784Z,-79
2018-12-14T05:43:04.300Z,-80
2018-12-14T05:43:58.585Z,-80
2018-12-14T05:44:58.610Z,-80
2018-12-14T05:45:58.719Z,-80
2018-12-14T05:46:58.842Z,-80
2018-12-14T05:47:58.631Z,-80
2018-12-14T05:48:58.500Z,-80
2018-12-14T05:49:58.653Z,-80
2018-12-14T05:50:59.040Z,-80
2018-12-14T05:51:58.626Z,-80
2018-12-14T05:52:58.529Z,-79
2018-12-14T05:53:58.829Z,-80
2018-12-14T05:54:58.656Z,-80
2018-12-14T05:55:58.782Z,-80
2018-12-14T05:56:58.547Z,-80
2018-12-14T05:57:58.715Z,-80
2018-12-14T05:58:58.653Z,-79
2018-12-14T05:59:58.631Z,-80
2018-12-14T06:00:58.687Z,-80
2018-12-14T06:01:58.562Z,-80
2018-12-14T06:02:58.597Z,-81
2018-12-14T06:03:58.617Z,-79
2018-12-14T06:04:58.905Z,-78
2018-12-14T06:05:58.650Z,-77
2018-12-14T06:06:58.776Z,-77
2018-12-14T06:07:58.644Z,-77
2018-12-14T06:08:58.789Z,-74
2018-12-14T06:09:58.710Z,-74
2018-12-14T06:10:58.816Z,-74
2018-12-14T06:11:59.366Z,-73
2018-12-14T06:12:59.283Z,-75
2018-12-14T06:13:59.275Z,-73
2018-12-14T06:14:58.706Z,-76
2018-12-14T06:15:58.851Z,-75
2018-12-14T06:16:58.737Z,-76
2018-12-14T06:17:58.679Z,-76
2018-12-14T06:18:58.693Z,-77
2018-12-14T06:19:58.500Z,-77
2018-12-14T06:20:58.825Z,-75
2018-12-14T06:21:58.498Z,-78
2018-12-14T06:22:58.589Z,-77
2018-12-14T06:23:59.006Z,-77
2018-12-14T06:24:58.782Z,-76
2018-12-14T06:25:58.713Z,-77
2018-12-14T06:26:58.577Z,-78
2018-12-14T06:27:58.606Z,-78
2018-12-14T06:28:58.651Z,-77
2018-12-14T06:29:58.508Z,-78
2018-12-14T06:30:58.603Z,-77
2018-12-14T06:31:58.523Z,-78
2018-12-14T06:32:58.647Z,-75
2018-12-14T06:33:58.494Z,-77
2018-12-14T06:34:58.542Z,-77
2018-12-14T06:35:58.722Z,-76
2018-12-14T06:36:58.441Z,-78
2018-12-14T06:37:58.491Z,-77
2018-12-14T06:38:58.576Z,-77
2018-12-14T06:39:58.528Z,-78
2018-12-14T06:40:58.715Z,-75
2018-12-14T06:41:58.466Z,-77
2018-12-14T06:42:58.503Z,-77
2018-12-14T06:43:58.518Z,-77
2018-12-14T06:44:58.474Z,-78
2018-12-14T06:45:58.603Z,-78
2018-12-14T06:46:58.466Z,-77
2018-12-14T06:47:58.881Z,-77
2018-12-14T06:48:58.473Z,-77
2018-12-14T06:49:58.486Z,-77
2018-12-14T06:50:58.465Z,-77
2018-12-14T06:51:58.525Z,-77
2018-12-14T06:52:58.439Z,-78
2018-12-14T06:53:58.618Z,-78
2018-12-14T06:54:58.454Z,-77
2018-12-14T06:55:58.594Z,-78
2018-12-14T06:56:58.648Z,-77
2018-12-14T06:57:58.874Z,-75
2018-12-14T06:58:58.693Z,-77
2018-12-14T06:59:58.627Z,-76
2018-12-14T07:00:58.724Z,-76
2018-12-14T07:01:58.521Z,-77
2018-12-14T07:02:58.467Z,-77
2018-12-14T07:03:58.684Z,-77
2018-12-14T07:04:58.643Z,-75
2018-12-14T07:05:58.759Z,-74
2018-12-14T07:07:04.568Z,-76
2018-12-14T07:07:58.771Z,-76
2018-12-14T07:08:58.567Z,-75
2018-12-14T07:09:58.580Z,-78
2018-12-14T07:10:58.479Z,-78
2018-12-14T07:11:58.734Z,-76
2018-12-14T07:12:58.484Z,-77
2018-12-14T07:13:58.512Z,-78
2018-12-14T07:14:58.658Z,-77
2018-12-14T07:15:58.679Z,-77
2018-12-14T07:16:58.685Z,-75
2018-12-14T07:17:58.797Z,-77
2018-12-14T07:18:58.783Z,-76
2018-12-14T07:19:58.458Z,-78
2018-12-14T07:20:58.658Z,-76
2018-12-14T07:21:58.520Z,-78
2018-12-14T07:22:58.813Z,-76
2018-12-14T07:23:58.538Z,-78
2018-12-14T07:24:58.552Z,-77
2018-12-14T07:25:58.598Z,-78
2018-12-14T07:26:58.599Z,-77
2018-12-14T07:27:58.595Z,-77
2018-12-14T07:28:58.407Z,-77
2018-12-14T07:29:58.468Z,-77
2018-12-14T07:30:58.403Z,-78
2018-12-14T07:31:58.476Z,-77
2018-12-14T07:32:58.640Z,-75
2018-12-14T07:33:58.416Z,-78
2018-12-14T07:34:58.600Z,-76
2018-12-14T07:35:58.578Z,-78
2018-12-14T07:36:58.415Z,-78
2018-12-14T07:37:58.587Z,-78
2018-12-14T07:38:58.636Z,-78
2018-12-14T07:39:58.675Z,-76
2018-12-14T07:40:58.479Z,-77
2018-12-14T07:41:58.469Z,-77
2018-12-14T07:42:59.040Z,-75
2018-12-14T07:43:58.385Z,-77
2018-12-14T07:44:59.263Z,-76
2018-12-14T07:45:58.461Z,-78
2018-12-14T07:46:58.576Z,-77
2018-12-14T07:47:58.499Z,-78
2018-12-14T07:48:58.687Z,-78
2018-12-14T07:49:58.535Z,-77
2018-12-14T07:50:58.541Z,-78
2018-12-14T07:51:58.609Z,-76
2018-12-14T07:52:58.340Z,-78
2018-12-14T07:53:58.964Z,-76
2018-12-14T07:54:58.678Z,-78
2018-12-14T07:55:58.453Z,-79
2018-12-14T07:56:59.000Z,-76
2018-12-14T07:57:58.505Z,-77
2018-12-14T07:58:58.536Z,-78
2018-12-14T07:59:58.500Z,-78
2018-12-14T08:00:58.432Z,-78
2018-12-14T08:01:58.645Z,-78
2018-12-14T08:02:58.460Z,-77
2018-12-14T08:03:58.593Z,-75
2018-12-14T08:04:58.306Z,-78
2018-12-14T08:05:58.532Z,-78
2018-12-14T08:06:58.860Z,-76
2018-12-14T08:07:58.407Z,-78
2018-12-14T08:08:58.553Z,-78
2018-12-14T08:09:58.359Z,-78
2018-12-14T08:10:58.510Z,-77
2018-12-14T08:11:58.436Z,-78
2018-12-14T08:12:58.456Z,-78
2018-12-14T08:13:58.526Z,-77
2018-12-14T08:14:58.533Z,-78
2018-12-14T08:15:58.543Z,-77
2018-12-14T08:16:58.332Z,-78
2018-12-14T08:17:58.317Z,-78
2018-12-14T08:18:58.364Z,-78
2018-12-14T08:19:58.311Z,-78
2018-12-14T08:20:58.394Z,-78
2018-12-14T08:21:58.368Z,-78
2018-12-14T08:22:58.402Z,-78
2018-12-14T08:23:58.401Z,-78
2018-12-14T08:24:58.268Z,-78
2018-12-14T08:25:58.288Z,-78
2018-12-14T08:26:58.282Z,-79
2018-12-14T08:27:58.345Z,-79
2018-12-14T08:28:58.294Z,-78
2018-12-14T08:29:58.392Z,-79
2018-12-14T08:30:58.477Z,-79
2018-12-14T08:31:58.302Z,-78
2018-12-14T08:32:58.410Z,-79
2018-12-14T08:33:58.457Z,-79
2018-12-14T08:34:58.304Z,-79
2018-12-14T08:35:58.552Z,-78
2018-12-14T08:36:58.348Z,-79
2018-12-14T08:37:58.631Z,-76
2018-12-14T08:38:58.526Z,-77
2018-12-14T08:39:58.404Z,-79
2018-12-14T08:40:58.456Z,-78
2018-12-14T08:41:58.676Z,-76
2018-12-14T08:42:58.329Z,-79
2018-12-14T08:43:58.348Z,-79
2018-12-14T08:44:58.528Z,-77
2018-12-14T08:45:58.362Z,-79
2018-12-14T08:46:58.728Z,-75
2018-12-14T08:47:58.385Z,-78
2018-12-14T08:48:58.812Z,-75
2018-12-14T08:49:58.385Z,-78
2018-12-14T08:50:58.347Z,-78
2018-12-14T08:51:59.142Z,-74
2018-12-14T08:52:58.343Z,-78
2018-12-14T08:53:58.365Z,-79
2018-12-14T08:54:58.394Z,-79
2018-12-14T08:55:58.261Z,-78
2018-12-14T08:56:58.387Z,-78
2018-12-14T08:57:58.524Z,-77
2018-12-14T08:58:58.463Z,-78
2018-12-14T08:59:58.319Z,-79
2018-12-14T09:00:58.476Z,-78
2018-12-14T09:01:58.508Z,-77
2018-12-14T09:02:58.341Z,-78
2018-12-14T09:03:58.417Z,-78
2018-12-14T09:04:58.750Z,-76
2018-12-14T09:05:58.397Z,-78
2018-12-14T09:06:58.277Z,-76
2018-12-14T09:07:58.242Z,-78
2018-12-14T09:08:58.538Z,-78
2018-12-14T09:09:58.262Z,-78
2018-12-14T09:10:58.383Z,-78
2018-12-14T09:11:58.578Z,-77
2018-12-14T09:12:58.268Z,-77
2018-12-14T09:13:58.274Z,-78
2018-12-14T09:14:58.471Z,-78
2018-12-14T09:15:58.435Z,-79
2018-12-14T09:16:58.307Z,-78
2018-12-14T09:17:58.357Z,-78
2018-12-14T09:18:58.483Z,-77
2018-12-14T09:19:58.670Z,-76
2018-12-14T09:21:01.670Z,-78
2018-12-14T09:21:58.418Z,-78
2018-12-14T09:22:58.344Z,-77
2018-12-14T09:23:58.247Z,-78
2018-12-14T09:24:58.220Z,-78
2018-12-14T09:25:58.210Z,-78
2018-12-14T09:26:58.390Z,-78
2018-12-14T09:27:58.482Z,-76
2018-12-14T09:28:58.675Z,-76
2018-12-14T09:29:58.353Z,-78
2018-12-14T09:30:58.453Z,-78
2018-12-14T09:31:58.659Z,-76
2018-12-14T09:32:58.503Z,-76
2018-12-14T09:33:58.422Z,-78
2018-12-14T09:34:58.548Z,-77
2018-12-14T09:35:58.229Z,-78
2018-12-14T09:36:58.337Z,-78
2018-12-14T09:37:58.259Z,-78
2018-12-14T09:38:58.529Z,-77
2018-12-14T09:39:58.272Z,-79
2018-12-14T09:40:58.499Z,-79
2018-12-14T09:41:58.426Z,-79
2018-12-14T09:42:58.255Z,-79
2018-12-14T09:43:58.220Z,-79
2018-12-14T09:44:58.328Z,-79
2018-12-14T09:45:58.469Z,-79
2018-12-14T09:46:58.338Z,-80
2018-12-14T09:47:58.487Z,-80
2018-12-14T09:48:58.242Z,-80
2018-12-14T09:49:58.609Z,-80
2018-12-14T09:50:58.252Z,-79
2018-12-14T09:51:58.623Z,-79
2018-12-14T09:52:58.524Z,-79
2018-12-14T09:53:58.584Z,-79
2018-12-14T09:54:58.321Z,-80
2018-12-14T09:55:58.377Z,-80
2018-12-14T09:56:58.348Z,-80
2018-12-14T09:57:58.453Z,-80
2018-12-14T09:58:58.770Z,-80
2018-12-14T09:59:58.694Z,-80
2018-12-14T10:00:58.397Z,-79
2018-12-14T10:01:58.230Z,-78
2018-12-14T10:02:58.393Z,-78
2018-12-14T10:03:58.396Z,-78
2018-12-14T10:04:58.442Z,-79
2018-12-14T10:05:58.396Z,-80
2018-12-14T10:06:58.699Z,-80
2018-12-14T10:07:58.153Z,-80
2018-12-14T10:08:58.322Z,-80
2018-12-14T10:09:58.666Z,-80
2018-12-14T10:10:58.294Z,-79
2018-12-14T10:11:58.569Z,-79
2018-12-14T10:12:58.566Z,-79
2018-12-14T10:14:01.405Z,-79
2018-12-14T10:14:58.430Z,-79
2018-12-14T10:15:58.259Z,-78
2018-12-14T10:16:58.446Z,-79
2018-12-14T10:17:58.461Z,-78
2018-12-14T10:18:58.448Z,-79
2018-12-14T10:19:58.308Z,-78
2018-12-14T10:20:58.371Z,-79
2018-12-14T10:21:58.514Z,-78
2018-12-14T10:22:58.720Z,-78
2018-12-14T10:23:58.562Z,-79
2018-12-14T10:24:58.650Z,-79
2018-12-14T10:25:58.168Z,-79
2018-12-14T10:26:58.336Z,-80
2018-12-14T10:27:58.585Z,-80
2018-12-14T10:28:59.150Z,-80
2018-12-14T10:29:58.410Z,-80
2018-12-14T10:30:58.572Z,-79
2018-12-14T10:31:58.298Z,-78
2018-12-14T10:32:58.553Z,-78
2018-12-14T10:33:58.682Z,-78
2018-12-14T10:34:58.512Z,-78
2018-12-14T10:35:58.283Z,-78
2018-12-14T10:36:58.366Z,-78
2018-12-14T10:37:58.502Z,-78
2018-12-14T10:38:58.220Z,-77
2018-12-14T10:39:58.508Z,-77
2018-12-14T10:40:58.321Z,-77
2018-12-14T10:41:58.233Z,-77
2018-12-14T10:42:58.178Z,-77
2018-12-14T10:43:58.533Z,-77
2018-12-14T10:44:58.281Z,-77
2018-12-14T10:45:58.185Z,-77
2018-12-14T10:46:58.180Z,-77
2018-12-14T10:47:58.389Z,-77
2018-12-14T10:48:58.144Z,-77
2018-12-14T10:49:58.369Z,-77
2018-12-14T10:50:58.255Z,-77
2018-12-14T10:51:58.216Z,-77
2018-12-14T10:52:58.169Z,-77
2018-12-14T10:53:58.232Z,-77
2018-12-14T10:54:58.336Z,-77
2018-12-14T10:55:58.577Z,-77
2018-12-14T10:56:58.188Z,-77
2018-12-14T10:57:58.174Z,-77
2018-12-14T10:58:58.262Z,-77
2018-12-14T10:59:58.244Z,-77
2018-12-14T11:00:58.332Z,-77
2018-12-14T11:01:58.515Z,-77
2018-12-14T11:02:58.278Z,-77
2018-12-14T11:03:58.095Z,-77
2018-12-14T11:04:58.203Z,-77
2018-12-14T11:05:58.484Z,-77
2018-12-14T11:06:58.131Z,-77
2018-12-14T11:07:58.056Z,-77
2018-12-14T11:08:58.435Z,-77
2018-12-14T11:09:58.260Z,-77
2018-12-14T11:10:58.483Z,-77
2018-12-14T11:11:58.360Z,-77
2018-12-14T11:12:57.849Z,-77
2018-12-14T11:13:58.233Z,-77
2018-12-14T11:14:58.541Z,-77
2018-12-14T11:15:58.474Z,-77
2018-12-14T11:16:58.872Z,-77
2018-12-14T11:17:58.397Z,-77
2018-12-14T11:18:58.442Z,-77
2018-12-14T11:19:58.448Z,-77
2018-12-14T11:20:58.176Z,-77
2018-12-14T11:21:58.126Z,-77
2018-12-14T11:22:58.158Z,-77
2018-12-14T11:23:58.086Z,-77
2018-12-14T11:24:58.409Z,-77
2018-12-14T11:25:58.281Z,-77
2018-12-14T11:26:58.051Z,-78
2018-12-14T11:27:58.091Z,-77
2018-12-14T11:28:58.290Z,-77
2018-12-14T11:29:58.088Z,-77
2018-12-14T11:30:58.271Z,-77
2018-12-14T11:31:58.295Z,-77
2018-12-14T11:32:58.184Z,-77
2018-12-14T11:33:58.564Z,-77
2018-12-14T11:34:58.227Z,-77
2018-12-14T11:35:58.184Z,-76
2018-12-14T11:36:58.279Z,-77
2018-12-14T11:37:58.435Z,-77
2018-12-14T11:38:58.172Z,-77
2018-12-14T11:39:58.047Z,-77
2018-12-14T11:40:58.043Z,-77
2018-12-14T11:41:58.431Z,-77
2018-12-14T11:42:58.253Z,-77
2018-12-14T11:43:58.738Z,-73
2018-12-14T11:44:58.214Z,-76
2018-12-14T11:45:58.219Z,-76
2018-12-14T11:46:58.629Z,-74
2018-12-14T11:47:58.199Z,-77
2018-12-14T11:48:58.379Z,-76
2018-12-14T11:49:58.042Z,-77
2018-12-14T11:50:58.044Z,-76
2018-12-14T11:51:58.473Z,-75
2018-12-14T11:52:58.321Z,-74
2018-12-14T11:53:58.012Z,-77
2018-12-14T11:54:58.300Z,-75
2018-12-14T11:55:58.271Z,-75
2018-12-14T11:56:58.208Z,-76
2018-12-14T11:57:58.743Z,-74
2018-12-14T11:58:58.308Z,-75
2018-12-14T11:59:58.013Z,-77
2018-12-14T12:00:58.661Z,-74
2018-12-14T12:01:58.206Z,-76
2018-12-14T12:02:58.244Z,-76
2018-12-14T12:03:58.029Z,-77
2018-12-14T12:04:58.311Z,-76
2018-12-14T12:05:58.395Z,-74
2018-12-14T12:06:58.226Z,-77
2018-12-14T12:07:58.061Z,-76
2018-12-14T12:08:58.237Z,-74
2018-12-14T12:09:58.266Z,-76
2018-12-14T12:10:58.062Z,-76
2018-12-14T12:11:57.982Z,-77
2018-12-14T12:12:58.255Z,-75
2018-12-14T12:13:58.478Z,-74
2018-12-14T12:14:57.971Z,-76
2018-12-14T12:15:58.169Z,-76
2018-12-14T12:16:58.070Z,-77
2018-12-14T12:17:58.023Z,-77
2018-12-14T12:18:57.997Z,-76
2018-12-14T12:19:58.200Z,-76
2018-12-14T12:20:58.365Z,-74
2018-12-14T12:21:57.971Z,-77
2018-12-14T12:22:58.044Z,-77
2018-12-14T12:23:58.068Z,-77
2018-12-14T12:24:57.983Z,-77
2018-12-14T12:25:58.012Z,-77
2018-12-14T12:26:58.203Z,-77
2018-12-14T12:27:57.959Z,-77
2018-12-14T12:28:58.019Z,-77
2018-12-14T12:29:58.005Z,-77
2018-12-14T12:30:58.063Z,-77
2018-12-14T12:31:58.275Z,-77
2018-12-14T12:32:58.070Z,-77
2018-12-14T12:33:57.982Z,-77
2018-12-14T12:34:58.010Z,-77
2018-12-14T12:35:58.049Z,-78
2018-12-14T12:36:58.053Z,-77
2018-12-14T12:37:58.382Z,-78
2018-12-14T12:38:57.986Z,-78
2018-12-14T12:39:58.045Z,-78
2018-12-14T12:40:58.184Z,-78
2018-12-14T12:41:58.137Z,-78
2018-12-14T12:42:58.107Z,-78
2018-12-14T12:43:58.177Z,-79
2018-12-14T12:44:58.212Z,-79
2018-12-14T12:45:58.295Z,-79
2018-12-14T12:46:58.418Z,-78
2018-12-14T12:47:58.014Z,-78
2018-12-14T12:48:58.233Z,-78
2018-12-14T12:49:58.074Z,-78
2018-12-14T12:51:03.771Z,-78
2018-12-14T12:51:58.190Z,-78
2018-12-14T12:52:58.035Z,-78
2018-12-14T12:53:58.058Z,-79
2018-12-14T12:54:57.937Z,-79
2018-12-14T12:55:57.989Z,-77
2018-12-14T12:56:57.898Z,-77
2018-12-14T12:57:58.162Z,-77
2018-12-14T12:58:57.930Z,-77
2018-12-14T12:59:58.107Z,-77
2018-12-14T13:00:58.036Z,-77
2018-12-14T13:01:58.389Z,-77
2018-12-14T13:02:58.059Z,-77
2018-12-14T13:03:57.943Z,-77
2018-12-14T13:04:57.974Z,-77
2018-12-14T13:05:57.956Z,-77
2018-12-14T13:06:58.153Z,-78
2018-12-14T13:07:58.059Z,-77
2018-12-14T13:08:58.053Z,-78
2018-12-14T13:09:58.165Z,-77
2018-12-14T13:10:57.910Z,-77
2018-12-14T13:11:58.187Z,-77
2018-12-14T13:12:58.336Z,-77
2018-12-14T13:13:58.312Z,-77
2018-12-14T13:14:58.142Z,-77
2018-12-14T13:15:58.254Z,-77
2018-12-14T13:16:57.905Z,-77
2018-12-14T13:17:58.268Z,-77
2018-12-14T13:18:57.890Z,-77
2018-12-14T13:19:58.715Z,-77
2018-12-14T13:20:58.289Z,-77
2018-12-14T13:21:58.143Z,-77
2018-12-14T13:22:58.091Z,-77
2018-12-14T13:23:58.715Z,-77
2018-12-14T13:24:58.372Z,-77
2018-12-14T13:25:58.344Z,-77
2018-12-14T13:26:58.207Z,-77
2018-12-14T13:27:58.755Z,-77
2018-12-14T13:28:58.211Z,-77
2018-12-14T13:29:57.891Z,-78
2018-12-14T13:30:58.119Z,-78
2018-12-14T13:31:57.921Z,-77
2018-12-14T13:32:57.997Z,-78
2018-12-14T13:33:58.222Z,-78
2018-12-14T13:34:57.956Z,-78
2018-12-14T13:35:58.069Z,-80
2018-12-14T13:36:58.073Z,-80
2018-12-14T13:37:58.153Z,-79
2018-12-14T13:38:58.081Z,-79
2018-12-14T13:39:58.016Z,-79
2018-12-14T13:40:58.125Z,-79
2018-12-14T13:41:58.110Z,-80
2018-12-14T13:42:57.964Z,-79
2018-12-14T13:43:58.363Z,-80
2018-12-14T13:44:58.014Z,-79
2018-12-14T13:45:58.230Z,-79
2018-12-14T13:46:58.123Z,-79